sensor_id;sensor_type;location;lat;lon;timestamp;temperature;humidity
25440;DHT22;13365;52.208;5.488;2022-07-10T00:00:29;20.20;78.60
25440;DHT22;13365;52.208;5.488;2022-07-10T00:02:55;20.40;78.70
25440;DHT22;13365;52.208;5.488;2022-07-10T00:05:21;20.50;78.50
25440;DHT22;13365;52.208;5.488;2022-07-10T00:07:47;20.50;78.20
25440;DHT22;13365;52.208;5.488;2022-07-10T00:10:13;20.40;78.00
25440;DHT22;13365;52.208;5.488;2022-07-10T00:12:38;20.40;78.60
25440;DHT22;13365;52.208;5.488;2022-07-10T00:15:04;20.40;79.10
25440;DHT22;13365;52.208;5.488;2022-07-10T00:17:30;20.40;80.30
25440;DHT22;13365;52.208;5.488;2022-07-10T00:19:56;20.40;79.80
25440;DHT22;13365;52.208;5.488;2022-07-10T00:22:21;20.20;80.40
25440;DHT22;13365;52.208;5.488;2022-07-10T00:24:47;20.30;80.80
25440;DHT22;13365;52.208;5.488;2022-07-10T00:27:12;20.40;80.90
25440;DHT22;13365;52.208;5.488;2022-07-10T00:29:38;20.50;81.00
25440;DHT22;13365;52.208;5.488;2022-07-10T00:32:04;20.60;81.00
25440;DHT22;13365;52.208;5.488;2022-07-10T00:34:30;20.60;81.20
25440;DHT22;13365;52.208;5.488;2022-07-10T00:36:55;20.60;80.90
25440;DHT22;13365;52.208;5.488;2022-07-10T00:39:20;20.60;80.70
25440;DHT22;13365;52.208;5.488;2022-07-10T00:41:46;20.60;81.10
25440;DHT22;13365;52.208;5.488;2022-07-10T00:44:11;20.80;80.40
25440;DHT22;13365;52.208;5.488;2022-07-10T00:46:37;20.50;80.20
25440;DHT22;13365;52.208;5.488;2022-07-10T00:49:02;20.20;80.20
25440;DHT22;13365;52.208;5.488;2022-07-10T00:51:28;20.40;80.50
25440;DHT22;13365;52.208;5.488;2022-07-10T00:53:55;20.60;80.30
25440;DHT22;13365;52.208;5.488;2022-07-10T00:56:22;20.80;79.00
25440;DHT22;13365;52.208;5.488;2022-07-10T00:58:48;21.00;78.70
25440;DHT22;13365;52.208;5.488;2022-07-10T01:01:14;20.80;78.10
25440;DHT22;13365;52.208;5.488;2022-07-10T01:03:40;20.60;78.20
25440;DHT22;13365;52.208;5.488;2022-07-10T01:06:05;20.90;78.10
25440;DHT22;13365;52.208;5.488;2022-07-10T01:08:31;21.00;77.60
25440;DHT22;13365;52.208;5.488;2022-07-10T01:10:57;20.90;77.30
25440;DHT22;13365;52.208;5.488;2022-07-10T01:13:22;20.80;76.90
25440;DHT22;13365;52.208;5.488;2022-07-10T01:15:48;20.70;77.50
25440;DHT22;13365;52.208;5.488;2022-07-10T01:18:16;20.70;77.60
25440;DHT22;13365;52.208;5.488;2022-07-10T01:20:42;20.70;77.70
25440;DHT22;13365;52.208;5.488;2022-07-10T01:23:07;20.90;77.70
25440;DHT22;13365;52.208;5.488;2022-07-10T01:25:33;20.80;77.50
25440;DHT22;13365;52.208;5.488;2022-07-10T01:27:58;20.80;77.70
25440;DHT22;13365;52.208;5.488;2022-07-10T01:30:24;20.80;78.00
25440;DHT22;13365;52.208;5.488;2022-07-10T01:32:50;20.80;78.10
25440;DHT22;13365;52.208;5.488;2022-07-10T01:35:15;20.80;78.20
25440;DHT22;13365;52.208;5.488;2022-07-10T01:37:41;20.70;78.50
25440;DHT22;13365;52.208;5.488;2022-07-10T01:40:07;20.90;78.30
25440;DHT22;13365;52.208;5.488;2022-07-10T01:42:33;20.80;78.30
25440;DHT22;13365;52.208;5.488;2022-07-10T01:44:58;20.70;78.50
25440;DHT22;13365;52.208;5.488;2022-07-10T01:47:24;20.70;78.70
25440;DHT22;13365;52.208;5.488;2022-07-10T01:49:51;20.60;79.00
25440;DHT22;13365;52.208;5.488;2022-07-10T01:52:21;20.70;79.10
25440;DHT22;13365;52.208;5.488;2022-07-10T01:54:47;20.60;79.30
25440;DHT22;13365;52.208;5.488;2022-07-10T01:57:13;20.60;79.80
25440;DHT22;13365;52.208;5.488;2022-07-10T01:59:39;20.40;80.30
25440;DHT22;13365;52.208;5.488;2022-07-10T02:02:04;20.40;80.80
25440;DHT22;13365;52.208;5.488;2022-07-10T02:04:30;20.40;81.30
25440;DHT22;13365;52.208;5.488;2022-07-10T02:09:33;20.10;83.20
25440;DHT22;13365;52.208;5.488;2022-07-10T02:11:59;20.00;83.90
25440;DHT22;13365;52.208;5.488;2022-07-10T02:14:24;20.00;84.80
25440;DHT22;13365;52.208;5.488;2022-07-10T02:16:50;20.00;84.90
25440;DHT22;13365;52.208;5.488;2022-07-10T02:19:15;20.00;85.40
25440;DHT22;13365;52.208;5.488;2022-07-10T02:21:41;20.10;85.20
25440;DHT22;13365;52.208;5.488;2022-07-10T02:24:06;19.90;85.50
25440;DHT22;13365;52.208;5.488;2022-07-10T02:26:32;19.90;86.00
25440;DHT22;13365;52.208;5.488;2022-07-10T02:28:57;19.90;86.40
25440;DHT22;13365;52.208;5.488;2022-07-10T02:31:23;19.70;86.50
25440;DHT22;13365;52.208;5.488;2022-07-10T02:33:48;19.70;86.90
25440;DHT22;13365;52.208;5.488;2022-07-10T02:36:14;19.80;87.10
25440;DHT22;13365;52.208;5.488;2022-07-10T02:38:39;19.70;87.50
25440;DHT22;13365;52.208;5.488;2022-07-10T02:41:05;19.70;87.60
25440;DHT22;13365;52.208;5.488;2022-07-10T02:43:30;19.70;87.70
25440;DHT22;13365;52.208;5.488;2022-07-10T02:45:56;19.70;87.70
25440;DHT22;13365;52.208;5.488;2022-07-10T02:48:21;19.50;87.90
25440;DHT22;13365;52.208;5.488;2022-07-10T02:50:46;19.60;87.60
25440;DHT22;13365;52.208;5.488;2022-07-10T02:53:12;19.70;88.00
25440;DHT22;13365;52.208;5.488;2022-07-10T02:55:37;19.60;87.60
25440;DHT22;13365;52.208;5.488;2022-07-10T02:58:03;19.60;87.50
25440;DHT22;13365;52.208;5.488;2022-07-10T03:00:28;19.50;87.20
25440;DHT22;13365;52.208;5.488;2022-07-10T03:02:54;19.70;87.30
25440;DHT22;13365;52.208;5.488;2022-07-10T03:05:20;19.50;87.20
25440;DHT22;13365;52.208;5.488;2022-07-10T03:07:45;19.50;87.30
25440;DHT22;13365;52.208;5.488;2022-07-10T03:10:11;19.60;87.70
25440;DHT22;13365;52.208;5.488;2022-07-10T03:12:37;19.60;87.20
25440;DHT22;13365;52.208;5.488;2022-07-10T03:15:03;19.70;87.20
25440;DHT22;13365;52.208;5.488;2022-07-10T03:17:28;19.80;86.90
25440;DHT22;13365;52.208;5.488;2022-07-10T03:19:54;19.70;86.30
25440;DHT22;13365;52.208;5.488;2022-07-10T03:22:20;19.60;86.20
25440;DHT22;13365;52.208;5.488;2022-07-10T03:24:45;19.60;86.50
25440;DHT22;13365;52.208;5.488;2022-07-10T03:27:12;19.80;86.50
25440;DHT22;13365;52.208;5.488;2022-07-10T03:29:38;19.80;86.10
25440;DHT22;13365;52.208;5.488;2022-07-10T03:32:04;19.80;85.50
25440;DHT22;13365;52.208;5.488;2022-07-10T03:34:29;19.80;85.50
25440;DHT22;13365;52.208;5.488;2022-07-10T03:36:55;19.70;85.80
25440;DHT22;13365;52.208;5.488;2022-07-10T03:39:21;19.80;85.10
25440;DHT22;13365;52.208;5.488;2022-07-10T03:41:46;19.90;84.30
25440;DHT22;13365;52.208;5.488;2022-07-10T03:44:12;20.10;84.10
25440;DHT22;13365;52.208;5.488;2022-07-10T03:46:37;20.10;83.70
25440;DHT22;13365;52.208;5.488;2022-07-10T03:49:03;20.00;83.80
25440;DHT22;13365;52.208;5.488;2022-07-10T03:51:28;19.90;84.50
25440;DHT22;13365;52.208;5.488;2022-07-10T03:53:54;20.00;84.20
25440;DHT22;13365;52.208;5.488;2022-07-10T03:56:19;19.70;84.60
25440;DHT22;13365;52.208;5.488;2022-07-10T03:59:03;19.70;85.20
25440;DHT22;13365;52.208;5.488;2022-07-10T04:01:29;19.80;84.90
25440;DHT22;13365;52.208;5.488;2022-07-10T04:03:54;19.80;85.70
25440;DHT22;13365;52.208;5.488;2022-07-10T04:06:19;19.80;85.50
25440;DHT22;13365;52.208;5.488;2022-07-10T04:08:45;19.70;86.10
25440;DHT22;13365;52.208;5.488;2022-07-10T04:11:10;19.90;85.90
25440;DHT22;13365;52.208;5.488;2022-07-10T04:13:36;19.90;86.00
25440;DHT22;13365;52.208;5.488;2022-07-10T04:16:02;20.00;86.00
25440;DHT22;13365;52.208;5.488;2022-07-10T04:18:28;20.10;85.20
25440;DHT22;13365;52.208;5.488;2022-07-10T04:20:53;20.10;85.50
25440;DHT22;13365;52.208;5.488;2022-07-10T04:23:18;20.30;85.10
25440;DHT22;13365;52.208;5.488;2022-07-10T04:25:44;20.20;84.90
25440;DHT22;13365;52.208;5.488;2022-07-10T04:28:09;20.40;85.50
25440;DHT22;13365;52.208;5.488;2022-07-10T04:30:35;20.40;85.10
25440;DHT22;13365;52.208;5.488;2022-07-10T04:33:00;20.20;85.30
25440;DHT22;13365;52.208;5.488;2022-07-10T04:35:26;20.40;85.40
25440;DHT22;13365;52.208;5.488;2022-07-10T04:37:51;20.50;84.90
25440;DHT22;13365;52.208;5.488;2022-07-10T04:40:16;20.50;85.50
25440;DHT22;13365;52.208;5.488;2022-07-10T04:42:42;20.50;85.00
25440;DHT22;13365;52.208;5.488;2022-07-10T04:45:07;20.60;85.20
25440;DHT22;13365;52.208;5.488;2022-07-10T04:47:33;20.60;85.50
25440;DHT22;13365;52.208;5.488;2022-07-10T04:49:58;20.50;85.80
25440;DHT22;13365;52.208;5.488;2022-07-10T04:52:24;20.40;86.20
25440;DHT22;13365;52.208;5.488;2022-07-10T04:54:50;20.50;86.80
25440;DHT22;13365;52.208;5.488;2022-07-10T04:57:15;20.20;87.10
25440;DHT22;13365;52.208;5.488;2022-07-10T04:59:41;20.30;87.50
25440;DHT22;13365;52.208;5.488;2022-07-10T05:02:06;20.50;87.50
25440;DHT22;13365;52.208;5.488;2022-07-10T05:04:33;20.40;87.40
25440;DHT22;13365;52.208;5.488;2022-07-10T05:06:59;20.60;87.20
25440;DHT22;13365;52.208;5.488;2022-07-10T05:09:24;20.60;87.10
25440;DHT22;13365;52.208;5.488;2022-07-10T05:11:49;20.60;87.10
25440;DHT22;13365;52.208;5.488;2022-07-10T05:14:15;20.60;87.50
25440;DHT22;13365;52.208;5.488;2022-07-10T05:16:41;20.60;87.60
25440;DHT22;13365;52.208;5.488;2022-07-10T05:19:07;20.50;88.40
25440;DHT22;13365;52.208;5.488;2022-07-10T05:21:32;20.30;88.80
25440;DHT22;13365;52.208;5.488;2022-07-10T05:23:58;20.30;89.30
25440;DHT22;13365;52.208;5.488;2022-07-10T05:26:24;20.60;89.30
25440;DHT22;13365;52.208;5.488;2022-07-10T05:28:49;20.60;88.60
25440;DHT22;13365;52.208;5.488;2022-07-10T05:31:15;20.50;88.50
25440;DHT22;13365;52.208;5.488;2022-07-10T05:33:40;20.50;88.80
25440;DHT22;13365;52.208;5.488;2022-07-10T05:36:07;20.40;88.80
25440;DHT22;13365;52.208;5.488;2022-07-10T05:38:33;20.50;88.70
25440;DHT22;13365;52.208;5.488;2022-07-10T05:40:58;20.40;88.90
25440;DHT22;13365;52.208;5.488;2022-07-10T05:43:24;20.30;89.10
25440;DHT22;13365;52.208;5.488;2022-07-10T05:45:49;20.30;89.70
25440;DHT22;13365;52.208;5.488;2022-07-10T05:48:15;20.20;89.80
25440;DHT22;13365;52.208;5.488;2022-07-10T05:50:40;20.40;89.90
25440;DHT22;13365;52.208;5.488;2022-07-10T05:53:05;20.40;90.00
25440;DHT22;13365;52.208;5.488;2022-07-10T05:55:31;20.40;90.00
25440;DHT22;13365;52.208;5.488;2022-07-10T05:57:56;20.40;90.00
25440;DHT22;13365;52.208;5.488;2022-07-10T06:00:22;20.40;89.80
25440;DHT22;13365;52.208;5.488;2022-07-10T06:02:47;20.50;90.00
25440;DHT22;13365;52.208;5.488;2022-07-10T06:05:13;20.70;89.50
25440;DHT22;13365;52.208;5.488;2022-07-10T06:07:38;20.50;89.40
25440;DHT22;13365;52.208;5.488;2022-07-10T06:10:04;20.50;90.00
25440;DHT22;13365;52.208;5.488;2022-07-10T06:12:30;20.40;89.80
25440;DHT22;13365;52.208;5.488;2022-07-10T06:14:56;20.30;90.20
25440;DHT22;13365;52.208;5.488;2022-07-10T06:17:21;20.30;90.50
25440;DHT22;13365;52.208;5.488;2022-07-10T06:19:47;20.60;90.10
25440;DHT22;13365;52.208;5.488;2022-07-10T06:22:12;20.70;90.00
25440;DHT22;13365;52.208;5.488;2022-07-10T06:25:06;20.80;89.80
25440;DHT22;13365;52.208;5.488;2022-07-10T06:27:32;20.70;90.10
25440;DHT22;13365;52.208;5.488;2022-07-10T06:29:58;20.70;90.40
25440;DHT22;13365;52.208;5.488;2022-07-10T06:32:23;20.70;90.30
25440;DHT22;13365;52.208;5.488;2022-07-10T06:34:50;20.40;90.30
25440;DHT22;13365;52.208;5.488;2022-07-10T06:37:15;20.40;90.40
25440;DHT22;13365;52.208;5.488;2022-07-10T06:39:41;20.50;90.60
25440;DHT22;13365;52.208;5.488;2022-07-10T06:42:06;20.60;90.60
25440;DHT22;13365;52.208;5.488;2022-07-10T06:44:34;20.40;90.30
25440;DHT22;13365;52.208;5.488;2022-07-10T06:46:59;20.40;90.50
25440;DHT22;13365;52.208;5.488;2022-07-10T06:49:43;20.50;90.20
25440;DHT22;13365;52.208;5.488;2022-07-10T06:52:10;20.60;90.10
25440;DHT22;13365;52.208;5.488;2022-07-10T06:54:36;20.50;90.20
25440;DHT22;13365;52.208;5.488;2022-07-10T06:57:01;20.60;90.00
25440;DHT22;13365;52.208;5.488;2022-07-10T06:59:27;20.50;90.00
25440;DHT22;13365;52.208;5.488;2022-07-10T07:01:53;20.60;90.30
25440;DHT22;13365;52.208;5.488;2022-07-10T07:04:19;20.50;90.10
25440;DHT22;13365;52.208;5.488;2022-07-10T07:06:44;20.80;90.30
25440;DHT22;13365;52.208;5.488;2022-07-10T07:09:10;20.80;90.00
25440;DHT22;13365;52.208;5.488;2022-07-10T07:11:36;20.70;90.10
25440;DHT22;13365;52.208;5.488;2022-07-10T07:14:01;20.90;90.00
25440;DHT22;13365;52.208;5.488;2022-07-10T07:16:27;20.90;90.10
25440;DHT22;13365;52.208;5.488;2022-07-10T07:19:03;20.90;89.90
25440;DHT22;13365;52.208;5.488;2022-07-10T07:21:33;20.90;89.90
25440;DHT22;13365;52.208;5.488;2022-07-10T07:24:18;21.00;89.50
25440;DHT22;13365;52.208;5.488;2022-07-10T07:26:44;21.00;88.70
25440;DHT22;13365;52.208;5.488;2022-07-10T07:29:15;21.00;89.20
25440;DHT22;13365;52.208;5.488;2022-07-10T07:31:41;21.10;89.60
25440;DHT22;13365;52.208;5.488;2022-07-10T07:34:07;21.20;88.90
25440;DHT22;13365;52.208;5.488;2022-07-10T07:36:32;21.00;89.10
25440;DHT22;13365;52.208;5.488;2022-07-10T07:38:58;20.90;89.60
25440;DHT22;13365;52.208;5.488;2022-07-10T07:41:23;20.90;90.00
25440;DHT22;13365;52.208;5.488;2022-07-10T07:43:49;20.90;89.60
25440;DHT22;13365;52.208;5.488;2022-07-10T07:46:14;20.70;90.10
25440;DHT22;13365;52.208;5.488;2022-07-10T07:48:40;20.80;89.40
25440;DHT22;13365;52.208;5.488;2022-07-10T07:51:06;20.60;90.20
25440;DHT22;13365;52.208;5.488;2022-07-10T07:53:31;20.80;90.60
25440;DHT22;13365;52.208;5.488;2022-07-10T07:55:57;20.80;90.20
25440;DHT22;13365;52.208;5.488;2022-07-10T07:58:22;20.90;90.10
25440;DHT22;13365;52.208;5.488;2022-07-10T08:00:47;21.00;90.00
25440;DHT22;13365;52.208;5.488;2022-07-10T08:03:13;21.10;90.00
25440;DHT22;13365;52.208;5.488;2022-07-10T08:05:38;21.00;89.20
25440;DHT22;13365;52.208;5.488;2022-07-10T08:08:04;21.10;88.90
25440;DHT22;13365;52.208;5.488;2022-07-10T08:10:33;21.20;88.90
25440;DHT22;13365;52.208;5.488;2022-07-10T08:12:58;21.30;88.70
25440;DHT22;13365;52.208;5.488;2022-07-10T08:15:24;21.40;88.10
25440;DHT22;13365;52.208;5.488;2022-07-10T08:17:50;21.40;88.10
25440;DHT22;13365;52.208;5.488;2022-07-10T08:20:15;21.50;88.80
25440;DHT22;13365;52.208;5.488;2022-07-10T08:22:41;21.80;87.40
25440;DHT22;13365;52.208;5.488;2022-07-10T08:25:07;21.80;87.20
25440;DHT22;13365;52.208;5.488;2022-07-10T08:27:33;21.70;86.80
25440;DHT22;13365;52.208;5.488;2022-07-10T08:29:58;21.40;86.90
25440;DHT22;13365;52.208;5.488;2022-07-10T08:32:24;21.30;88.00
25440;DHT22;13365;52.208;5.488;2022-07-10T08:34:49;21.40;87.80
25440;DHT22;13365;52.208;5.488;2022-07-10T08:37:15;21.40;87.60
25440;DHT22;13365;52.208;5.488;2022-07-10T08:39:40;21.20;87.70
25440;DHT22;13365;52.208;5.488;2022-07-10T08:42:06;21.40;88.40
25440;DHT22;13365;52.208;5.488;2022-07-10T08:44:33;21.40;88.00
25440;DHT22;13365;52.208;5.488;2022-07-10T08:46:58;21.60;88.70
25440;DHT22;13365;52.208;5.488;2022-07-10T08:49:26;21.70;88.50
25440;DHT22;13365;52.208;5.488;2022-07-10T08:52:01;22.00;88.30
25440;DHT22;13365;52.208;5.488;2022-07-10T08:54:29;22.20;86.80
25440;DHT22;13365;52.208;5.488;2022-07-10T08:56:58;22.70;84.60
25440;DHT22;13365;52.208;5.488;2022-07-10T08:59:24;23.30;82.90
25440;DHT22;13365;52.208;5.488;2022-07-10T09:01:50;23.40;82.20
25440;DHT22;13365;52.208;5.488;2022-07-10T09:04:23;23.50;81.90
25440;DHT22;13365;52.208;5.488;2022-07-10T09:06:48;23.30;80.50
25440;DHT22;13365;52.208;5.488;2022-07-10T09:09:14;23.40;80.80
25440;DHT22;13365;52.208;5.488;2022-07-10T09:11:40;23.30;80.90
25440;DHT22;13365;52.208;5.488;2022-07-10T09:14:09;23.00;80.90
25440;DHT22;13365;52.208;5.488;2022-07-10T09:16:37;22.90;80.90
25440;DHT22;13365;52.208;5.488;2022-07-10T09:21:47;22.90;81.50
25440;DHT22;13365;52.208;5.488;2022-07-10T09:24:13;22.80;82.80
25440;DHT22;13365;52.208;5.488;2022-07-10T09:26:39;23.00;82.40
25440;DHT22;13365;52.208;5.488;2022-07-10T09:29:05;23.10;81.00
25440;DHT22;13365;52.208;5.488;2022-07-10T09:31:47;22.90;81.30
25440;DHT22;13365;52.208;5.488;2022-07-10T09:34:12;23.00;81.60
25440;DHT22;13365;52.208;5.488;2022-07-10T09:36:38;23.00;81.40
25440;DHT22;13365;52.208;5.488;2022-07-10T09:39:03;22.90;81.10
25440;DHT22;13365;52.208;5.488;2022-07-10T09:41:30;23.00;82.00
25440;DHT22;13365;52.208;5.488;2022-07-10T09:44:03;23.10;83.00
25440;DHT22;13365;52.208;5.488;2022-07-10T09:46:36;23.30;81.70
25440;DHT22;13365;52.208;5.488;2022-07-10T09:49:09;23.60;80.80
25440;DHT22;13365;52.208;5.488;2022-07-10T09:51:36;23.50;81.10
25440;DHT22;13365;52.208;5.488;2022-07-10T09:54:03;23.40;80.40
25440;DHT22;13365;52.208;5.488;2022-07-10T09:59:10;23.80;80.10
25440;DHT22;13365;52.208;5.488;2022-07-10T10:01:36;23.90;81.40
25440;DHT22;13365;52.208;5.488;2022-07-10T10:04:05;24.10;80.30
25440;DHT22;13365;52.208;5.488;2022-07-10T10:06:31;24.20;79.30
25440;DHT22;13365;52.208;5.488;2022-07-10T10:09:08;24.70;77.40
25440;DHT22;13365;52.208;5.488;2022-07-10T10:11:37;25.00;76.50
25440;DHT22;13365;52.208;5.488;2022-07-10T10:14:03;24.80;76.50
25440;DHT22;13365;52.208;5.488;2022-07-10T10:16:31;24.60;77.00
25440;DHT22;13365;52.208;5.488;2022-07-10T10:18:58;24.40;77.60
25440;DHT22;13365;52.208;5.488;2022-07-10T10:21:42;24.10;79.20
25440;DHT22;13365;52.208;5.488;2022-07-10T10:24:08;23.80;79.10
25440;DHT22;13365;52.208;5.488;2022-07-10T10:26:35;24.10;78.60
25440;DHT22;13365;52.208;5.488;2022-07-10T10:29:01;24.10;78.90
25440;DHT22;13365;52.208;5.488;2022-07-10T10:31:27;23.90;78.40
25440;DHT22;13365;52.208;5.488;2022-07-10T10:33:57;23.70;79.10
25440;DHT22;13365;52.208;5.488;2022-07-10T10:39:11;23.60;80.50
25440;DHT22;13365;52.208;5.488;2022-07-10T10:41:39;23.90;81.10
25440;DHT22;13365;52.208;5.488;2022-07-10T10:49:18;24.30;78.80
25440;DHT22;13365;52.208;5.488;2022-07-10T10:51:57;24.20;77.80
25440;DHT22;13365;52.208;5.488;2022-07-10T10:54:23;23.90;79.80
25440;DHT22;13365;52.208;5.488;2022-07-10T10:59:53;24.10;78.60
25440;DHT22;13365;52.208;5.488;2022-07-10T11:02:26;24.10;78.90
25440;DHT22;13365;52.208;5.488;2022-07-10T11:04:58;23.90;78.70
25440;DHT22;13365;52.208;5.488;2022-07-10T11:10:26;23.80;79.90
25440;DHT22;13365;52.208;5.488;2022-07-10T11:12:59;23.70;80.00
25440;DHT22;13365;52.208;5.488;2022-07-10T11:15:25;23.60;79.50
25440;DHT22;13365;52.208;5.488;2022-07-10T11:17:51;23.80;79.10
25440;DHT22;13365;52.208;5.488;2022-07-10T11:20:17;24.00;78.90
25440;DHT22;13365;52.208;5.488;2022-07-10T11:22:46;23.80;76.80
25440;DHT22;13365;52.208;5.488;2022-07-10T11:28:07;24.10;77.10
25440;DHT22;13365;52.208;5.488;2022-07-10T11:30:49;24.10;75.70
25440;DHT22;13365;52.208;5.488;2022-07-10T11:33:14;24.00;75.70
25440;DHT22;13365;52.208;5.488;2022-07-10T11:35:41;24.40;76.00
25440;DHT22;13365;52.208;5.488;2022-07-10T11:38:09;24.50;74.90
25440;DHT22;13365;52.208;5.488;2022-07-10T11:40:37;24.50;75.10
25440;DHT22;13365;52.208;5.488;2022-07-10T11:43:03;24.60;74.30
25440;DHT22;13365;52.208;5.488;2022-07-10T11:45:33;24.50;73.90
25440;DHT22;13365;52.208;5.488;2022-07-10T11:48:01;24.40;74.80
25440;DHT22;13365;52.208;5.488;2022-07-10T11:50:28;24.80;75.40
25440;DHT22;13365;52.208;5.488;2022-07-10T11:52:59;24.90;73.30
25440;DHT22;13365;52.208;5.488;2022-07-10T11:55:26;25.00;73.00
25440;DHT22;13365;52.208;5.488;2022-07-10T11:57:52;25.00;72.70
25440;DHT22;13365;52.208;5.488;2022-07-10T12:00:21;24.90;73.50
25440;DHT22;13365;52.208;5.488;2022-07-10T12:02:49;25.20;73.10
25440;DHT22;13365;52.208;5.488;2022-07-10T12:05:30;25.30;71.60
25440;DHT22;13365;52.208;5.488;2022-07-10T12:07:56;25.40;72.40
25440;DHT22;13365;52.208;5.488;2022-07-10T12:10:25;25.40;70.80
25440;DHT22;13365;52.208;5.488;2022-07-10T12:12:50;25.30;70.90
25440;DHT22;13365;52.208;5.488;2022-07-10T12:15:37;25.60;69.20
25440;DHT22;13365;52.208;5.488;2022-07-10T12:18:03;25.50;69.20
25440;DHT22;13365;52.208;5.488;2022-07-10T12:20:29;25.30;69.80
25440;DHT22;13365;52.208;5.488;2022-07-10T12:22:55;25.10;70.10
25440;DHT22;13365;52.208;5.488;2022-07-10T12:25:21;24.80;71.20
25440;DHT22;13365;52.208;5.488;2022-07-10T12:27:47;24.80;71.30
25440;DHT22;13365;52.208;5.488;2022-07-10T12:30:12;24.90;70.50
25440;DHT22;13365;52.208;5.488;2022-07-10T12:32:38;25.00;69.80
25440;DHT22;13365;52.208;5.488;2022-07-10T12:35:03;25.10;69.90
25440;DHT22;13365;52.208;5.488;2022-07-10T12:37:32;25.50;68.50
25440;DHT22;13365;52.208;5.488;2022-07-10T12:39:57;25.10;68.80
25440;DHT22;13365;52.208;5.488;2022-07-10T12:42:30;25.30;69.30
25440;DHT22;13365;52.208;5.488;2022-07-10T12:45:11;25.30;69.90
25440;DHT22;13365;52.208;5.488;2022-07-10T12:47:44;25.30;69.30
25440;DHT22;13365;52.208;5.488;2022-07-10T12:50:11;25.30;68.90
25440;DHT22;13365;52.208;5.488;2022-07-10T12:52:37;25.40;69.10
25440;DHT22;13365;52.208;5.488;2022-07-10T13:00:10;25.10;70.40
25440;DHT22;13365;52.208;5.488;2022-07-10T13:02:38;25.00;70.60
25440;DHT22;13365;52.208;5.488;2022-07-10T13:05:04;25.30;70.70
25440;DHT22;13365;52.208;5.488;2022-07-10T13:07:30;25.30;70.30
25440;DHT22;13365;52.208;5.488;2022-07-10T13:09:58;25.30;69.70
25440;DHT22;13365;52.208;5.488;2022-07-10T13:12:23;25.40;70.30
25440;DHT22;13365;52.208;5.488;2022-07-10T13:14:49;25.60;69.90
25440;DHT22;13365;52.208;5.488;2022-07-10T13:17:14;25.80;69.00
25440;DHT22;13365;52.208;5.488;2022-07-10T13:19:40;26.00;68.80
25440;DHT22;13365;52.208;5.488;2022-07-10T13:22:05;26.20;68.20
25440;DHT22;13365;52.208;5.488;2022-07-10T13:24:30;26.30;68.30
25440;DHT22;13365;52.208;5.488;2022-07-10T13:26:57;26.10;69.00
25440;DHT22;13365;52.208;5.488;2022-07-10T13:29:23;25.80;69.40
25440;DHT22;13365;52.208;5.488;2022-07-10T13:31:48;25.90;69.40
25440;DHT22;13365;52.208;5.488;2022-07-10T13:34:14;26.00;70.80
25440;DHT22;13365;52.208;5.488;2022-07-10T13:36:39;26.40;69.50
25440;DHT22;13365;52.208;5.488;2022-07-10T13:39:05;26.60;67.30
25440;DHT22;13365;52.208;5.488;2022-07-10T13:41:31;26.70;68.10
25440;DHT22;13365;52.208;5.488;2022-07-10T13:43:57;26.60;67.20
25440;DHT22;13365;52.208;5.488;2022-07-10T13:46:22;26.50;68.50
25440;DHT22;13365;52.208;5.488;2022-07-10T13:48:47;26.10;69.00
25440;DHT22;13365;52.208;5.488;2022-07-10T13:51:13;25.80;70.20
25440;DHT22;13365;52.208;5.488;2022-07-10T13:53:38;25.70;69.90
25440;DHT22;13365;52.208;5.488;2022-07-10T13:56:04;25.60;69.90
25440;DHT22;13365;52.208;5.488;2022-07-10T13:58:30;25.30;71.10
25440;DHT22;13365;52.208;5.488;2022-07-10T14:00:56;25.20;71.70
25440;DHT22;13365;52.208;5.488;2022-07-10T14:03:24;25.00;71.60
25440;DHT22;13365;52.208;5.488;2022-07-10T14:05:50;25.00;72.90
25440;DHT22;13365;52.208;5.488;2022-07-10T14:08:15;25.10;73.20
25440;DHT22;13365;52.208;5.488;2022-07-10T14:10:40;25.10;71.90
25440;DHT22;13365;52.208;5.488;2022-07-10T14:13:06;25.00;72.90
25440;DHT22;13365;52.208;5.488;2022-07-10T14:15:34;25.10;73.90
25440;DHT22;13365;52.208;5.488;2022-07-10T14:18:00;25.00;73.50
25440;DHT22;13365;52.208;5.488;2022-07-10T14:20:25;25.10;73.90
25440;DHT22;13365;52.208;5.488;2022-07-10T14:22:51;25.00;73.90
25440;DHT22;13365;52.208;5.488;2022-07-10T14:25:17;24.80;75.10
25440;DHT22;13365;52.208;5.488;2022-07-10T14:27:42;24.90;75.30
25440;DHT22;13365;52.208;5.488;2022-07-10T14:30:08;25.20;74.60
25440;DHT22;13365;52.208;5.488;2022-07-10T14:32:33;25.60;75.10
25440;DHT22;13365;52.208;5.488;2022-07-10T14:34:59;25.60;72.90
25440;DHT22;13365;52.208;5.488;2022-07-10T14:37:24;25.60;74.00
25440;DHT22;13365;52.208;5.488;2022-07-10T14:39:50;26.00;73.00
25440;DHT22;13365;52.208;5.488;2022-07-10T14:42:15;26.40;71.80
25440;DHT22;13365;52.208;5.488;2022-07-10T14:44:41;26.50;71.60
25440;DHT22;13365;52.208;5.488;2022-07-10T14:47:06;26.50;71.30
25440;DHT22;13365;52.208;5.488;2022-07-10T14:49:32;26.40;71.20
25440;DHT22;13365;52.208;5.488;2022-07-10T14:51:57;26.40;72.20
25440;DHT22;13365;52.208;5.488;2022-07-10T14:54:23;26.20;72.00
25440;DHT22;13365;52.208;5.488;2022-07-10T14:56:48;26.50;71.70
25440;DHT22;13365;52.208;5.488;2022-07-10T14:59:14;26.80;72.50
25440;DHT22;13365;52.208;5.488;2022-07-10T15:01:39;26.70;71.20
25440;DHT22;13365;52.208;5.488;2022-07-10T15:04:05;26.80;71.50
25440;DHT22;13365;52.208;5.488;2022-07-10T15:06:30;27.10;71.10
25440;DHT22;13365;52.208;5.488;2022-07-10T15:08:56;27.00;71.00
25440;DHT22;13365;52.208;5.488;2022-07-10T15:11:22;27.00;71.00
25440;DHT22;13365;52.208;5.488;2022-07-10T15:13:51;26.90;70.60
25440;DHT22;13365;52.208;5.488;2022-07-10T15:16:18;26.80;71.70
25440;DHT22;13365;52.208;5.488;2022-07-10T15:18:44;26.70;72.00
25440;DHT22;13365;52.208;5.488;2022-07-10T15:21:09;26.60;72.20
25440;DHT22;13365;52.208;5.488;2022-07-10T15:23:36;26.30;72.90
25440;DHT22;13365;52.208;5.488;2022-07-10T15:26:02;26.30;73.50
25440;DHT22;13365;52.208;5.488;2022-07-10T15:28:29;26.30;73.40
25440;DHT22;13365;52.208;5.488;2022-07-10T15:30:55;25.90;73.80
25440;DHT22;13365;52.208;5.488;2022-07-10T15:33:21;25.90;74.80
25440;DHT22;13365;52.208;5.488;2022-07-10T15:35:46;26.30;75.80
25440;DHT22;13365;52.208;5.488;2022-07-10T15:38:12;26.00;75.30
25440;DHT22;13365;52.208;5.488;2022-07-10T15:40:37;26.00;75.40
25440;DHT22;13365;52.208;5.488;2022-07-10T15:43:03;25.80;74.20
25440;DHT22;13365;52.208;5.488;2022-07-10T15:45:28;26.10;75.10
25440;DHT22;13365;52.208;5.488;2022-07-10T15:47:54;26.30;74.80
25440;DHT22;13365;52.208;5.488;2022-07-10T15:50:20;26.30;73.50
25440;DHT22;13365;52.208;5.488;2022-07-10T15:52:45;26.10;74.60
25440;DHT22;13365;52.208;5.488;2022-07-10T15:55:11;25.90;75.50